createdAt,value
2018-11-12T00:00:16.371Z,89.83
2018-11-12T00:02:47.673Z,90.20
2018-11-12T00:05:17.312Z,104.57
2018-11-12T00:07:46.635Z,103.73
2018-11-12T00:10:15.779Z,110.87
2018-11-12T00:12:44.948Z,96.57
2018-11-12T00:15:14.120Z,114.83
2018-11-12T00:17:43.274Z,111.17
2018-11-12T00:20:13.690Z,106.60
2018-11-12T00:22:44.005Z,114.40
2018-11-12T00:25:13.253Z,114.23
2018-11-12T00:27:42.575Z,113.07
2018-11-12T00:30:15.005Z,109.27
2018-11-12T00:32:44.991Z,114.83
2018-11-12T00:35:14.168Z,123.10
2018-11-12T00:37:44.098Z,110.40
2018-11-12T00:40:16.507Z,126.03
2018-11-12T00:42:46.066Z,120.67
2018-11-12T00:45:15.906Z,116.80
2018-11-12T00:47:45.261Z,107.57
2018-11-12T00:50:15.530Z,107.00
2018-11-12T00:52:44.704Z,107.43
2018-11-12T00:55:14.965Z,118.40
2018-11-12T00:57:44.548Z,116.50
2018-11-12T01:00:16.723Z,126.33
2018-11-12T01:02:49.368Z,138.00
2018-11-12T01:05:19.311Z,123.83
2018-11-12T01:07:48.920Z,121.57
2018-11-12T01:10:19.047Z,114.57
2018-11-12T01:12:48.966Z,126.25
2018-11-12T01:15:19.677Z,123.35
2018-11-12T01:17:48.875Z,124.70
2018-11-12T01:20:18.618Z,151.23
2018-11-12T01:22:47.793Z,121.00
2018-11-12T01:25:16.970Z,124.67
2018-11-12T01:27:46.262Z,119.60
2018-11-12T01:30:16.720Z,129.07
2018-11-12T01:32:46.039Z,125.73
2018-11-12T01:35:16.237Z,122.50
2018-11-12T01:37:45.496Z,130.90
2018-11-12T01:40:15.332Z,127.43
2018-11-12T01:42:44.838Z,120.57
2018-11-12T01:45:16.132Z,113.10
2018-11-12T01:47:46.489Z,121.50
2018-11-12T01:50:16.244Z,124.03
2018-11-12T01:52:46.053Z,125.83
2018-11-12T01:55:17.299Z,124.80
2018-11-12T01:57:47.172Z,132.23
2018-11-12T02:00:21.368Z,142.70
2018-11-12T02:02:51.750Z,141.77
2018-11-12T02:05:21.040Z,151.10
2018-11-12T02:07:50.229Z,128.17
2018-11-12T02:10:19.757Z,139.40
2018-11-12T02:12:49.114Z,147.87
2018-11-12T02:15:20.418Z,145.70
2018-11-12T02:17:50.236Z,160.27
2018-11-12T02:20:20.458Z,169.13
2018-11-12T02:22:50.317Z,157.57
2018-11-12T02:25:19.942Z,158.90
2018-11-12T02:27:49.968Z,169.17
2018-11-12T02:30:24.533Z,163.57
2018-11-12T02:32:53.679Z,156.97
2018-11-12T02:35:22.833Z,176.90
2018-11-12T02:37:51.970Z,159.48
2018-11-12T02:40:21.116Z,162.60
2018-11-12T02:42:50.325Z,167.27
2018-11-12T02:45:19.478Z,165.50
2018-11-12T02:47:48.639Z,155.67
2018-11-12T02:50:18.270Z,170.97
2018-11-12T02:52:47.452Z,173.63
2018-11-12T02:55:16.763Z,173.73
2018-11-12T02:57:46.627Z,174.30
2018-11-12T03:00:18.721Z,150.77
2018-11-12T03:02:48.070Z,158.73
2018-11-12T03:05:17.427Z,171.20
2018-11-12T03:07:47.057Z,159.73
2018-11-12T03:10:20.531Z,171.00
2018-11-12T03:12:49.936Z,170.90
2018-11-12T03:15:20.071Z,175.10
2018-11-12T03:17:50.326Z,151.97
2018-11-12T03:20:20.843Z,154.30
2018-11-12T03:22:50.096Z,170.57
2018-11-12T03:25:20.657Z,174.40
2018-11-12T03:27:50.461Z,187.47
2018-11-12T03:30:20.820Z,173.80
2018-11-12T03:32:50.805Z,155.77
2018-11-12T03:35:20.114Z,167.43
2018-11-12T03:37:50.216Z,183.40
2018-11-12T03:40:21.564Z,170.25
2018-11-12T03:42:51.468Z,186.00
2018-11-12T03:45:22.026Z,164.67
2018-11-12T03:47:51.343Z,144.10
2018-11-12T03:50:21.785Z,147.97
2018-11-12T03:52:51.103Z,166.32
2018-11-12T03:55:21.312Z,168.37
2018-11-12T03:57:50.671Z,167.18
2018-11-12T04:00:36.415Z,140.07
2018-11-12T04:03:05.902Z,133.83
2018-11-12T04:05:35.196Z,145.03
2018-11-12T04:08:04.663Z,127.47
2018-11-12T04:10:34.009Z,145.80
2018-11-12T04:13:03.325Z,153.77
2018-11-12T04:15:33.134Z,145.13
2018-11-12T04:18:02.500Z,134.43
2018-11-12T04:20:31.791Z,137.17
2018-11-12T04:23:03.235Z,140.17
2018-11-12T04:25:33.864Z,130.97
2018-11-12T04:28:03.331Z,134.03
2018-11-12T04:30:32.837Z,127.35
2018-11-12T04:33:02.483Z,127.63
2018-11-12T04:35:31.927Z,129.63
2018-11-12T04:38:01.263Z,135.07
2018-11-12T04:40:30.586Z,126.67
2018-11-12T04:42:59.891Z,126.63
2018-11-12T04:45:29.409Z,118.37
2018-11-12T04:47:59.855Z,135.75
2018-11-12T04:50:29.598Z,141.93
2018-11-12T04:52:58.835Z,125.50
2018-11-12T04:55:28.285Z,121.33
2018-11-12T04:57:57.562Z,131.03
2018-11-12T05:00:28.664Z,116.20
2018-11-12T05:02:58.012Z,124.80
2018-11-12T05:05:28.401Z,117.23
2018-11-12T05:07:57.711Z,113.63
2018-11-12T05:10:27.732Z,114.67
2018-11-12T05:12:57.139Z,121.07
2018-11-12T05:15:26.847Z,108.93
2018-11-12T05:17:56.177Z,113.30
2018-11-12T05:20:27.887Z,97.17
2018-11-12T05:22:57.234Z,110.70
2018-11-12T05:25:26.633Z,93.27
2018-11-12T05:27:55.819Z,101.67
2018-11-12T05:30:27.093Z,100.77
2018-11-12T05:32:56.769Z,102.87
2018-11-12T05:35:27.110Z,90.42
2018-11-12T05:37:56.357Z,97.20
2018-11-12T05:40:27.561Z,96.20
2018-11-12T05:42:56.765Z,99.43
2018-11-12T05:45:27.302Z,107.15
2018-11-12T05:47:56.455Z,102.97
2018-11-12T05:50:30.705Z,101.10
2018-11-12T05:53:04.431Z,102.33
2018-11-12T05:55:34.315Z,104.13
2018-11-12T05:58:04.033Z,99.63
2018-11-12T06:00:34.688Z,90.40
2018-11-12T06:03:03.881Z,93.70
2018-11-12T06:05:34.196Z,96.37
2018-11-12T06:08:06.638Z,101.40
2018-11-12T06:10:36.374Z,103.80
2018-11-12T06:13:05.912Z,89.53
2018-11-12T06:15:35.056Z,101.40
2018-11-12T06:18:04.294Z,104.07
2018-11-12T06:20:34.294Z,114.37
2018-11-12T06:23:03.473Z,97.20
2018-11-12T06:25:34.133Z,113.30
2018-11-12T06:28:03.555Z,112.00
2018-11-12T06:30:34.486Z,106.20
2018-11-12T06:33:04.174Z,96.67
2018-11-12T06:35:33.335Z,105.60
2018-11-12T06:38:02.518Z,106.07
2018-11-12T06:40:31.690Z,106.47
2018-11-12T06:43:00.880Z,96.60
2018-11-12T06:45:31.129Z,100.07
2018-11-12T06:48:00.666Z,110.47
2018-11-12T06:50:31.125Z,103.63
2018-11-12T06:53:00.765Z,100.37
2018-11-12T06:55:29.965Z,86.77
2018-11-12T06:57:59.185Z,83.20
2018-11-12T07:00:32.672Z,91.40
2018-11-12T07:03:01.963Z,79.13
2018-11-12T07:05:31.535Z,74.17
2018-11-12T07:08:00.674Z,78.60
2018-11-12T07:10:30.351Z,74.73
2018-11-12T07:13:00.361Z,82.47
2018-11-12T07:15:29.756Z,83.67
2018-11-12T07:17:58.979Z,86.73
2018-11-12T07:20:28.940Z,74.67
2018-11-12T07:22:58.107Z,83.07
2018-11-12T07:25:28.607Z,90.30
2018-11-12T07:27:58.187Z,84.67
2018-11-12T07:30:28.240Z,77.00
2018-11-12T07:32:58.353Z,85.70
2018-11-12T07:35:28.027Z,80.67
2018-11-12T07:37:57.835Z,84.43
2018-11-12T07:40:27.145Z,79.10
2018-11-12T07:42:56.278Z,78.60
2018-11-12T07:45:26.889Z,81.47
2018-11-12T07:47:56.743Z,84.43
2018-11-12T07:50:27.136Z,88.17
2018-11-12T07:52:56.295Z,90.03
2018-11-12T07:55:26.574Z,83.85
2018-11-12T07:57:56.358Z,83.43
2018-11-12T08:00:33.945Z,83.63
2018-11-12T08:03:06.491Z,78.60
2018-11-12T08:05:36.590Z,73.83
2018-11-12T08:08:05.978Z,85.00
2018-11-12T08:10:35.232Z,79.57
2018-11-12T08:13:04.383Z,77.97
2018-11-12T08:15:33.638Z,87.23
2018-11-12T08:18:02.844Z,84.43
2018-11-12T08:20:31.996Z,76.60
2018-11-12T08:23:01.128Z,76.35
2018-11-12T08:25:30.293Z,78.15
2018-11-12T08:27:59.420Z,83.40
2018-11-12T08:30:29.363Z,81.43
2018-11-12T08:32:59.709Z,77.43
2018-11-12T08:35:28.845Z,80.80
2018-11-12T08:37:58.377Z,71.67
2018-11-12T08:40:28.898Z,78.10
2018-11-12T08:42:58.104Z,71.30
2018-11-12T08:45:27.240Z,73.40
2018-11-12T08:47:57.158Z,84.73
2018-11-12T08:50:27.141Z,78.60
2018-11-12T08:52:57.080Z,70.00
2018-11-12T08:55:29.687Z,70.93
2018-11-12T08:58:01.390Z,79.50
2018-11-12T09:00:30.661Z,75.30
2018-11-12T09:03:01.045Z,72.83
2018-11-12T09:05:30.904Z,86.43
2018-11-12T09:08:01.400Z,75.83
2018-11-12T09:10:31.886Z,78.60
2018-11-12T09:13:01.157Z,82.83
2018-11-12T09:15:30.396Z,79.67
2018-11-12T09:17:59.997Z,73.63
2018-11-12T09:20:29.406Z,68.63
2018-11-12T09:22:58.609Z,67.13
2018-11-12T09:25:28.503Z,66.02
2018-11-12T09:27:57.752Z,68.93
2018-11-12T09:30:28.147Z,74.87
2018-11-12T09:32:57.322Z,75.40
2018-11-12T09:35:27.863Z,73.73
2018-11-12T09:37:57.884Z,71.27
2018-11-12T09:40:30.122Z,71.70
2018-11-12T09:42:59.343Z,71.27
2018-11-12T09:45:28.494Z,70.57
2018-11-12T09:47:58.134Z,69.17
2018-11-12T09:50:27.984Z,68.50
2018-11-12T09:52:58.276Z,63.07
2018-11-12T09:55:28.630Z,65.15
2018-11-12T09:58:06.042Z,60.67
2018-11-12T10:00:35.996Z,67.63
2018-11-12T10:03:06.060Z,73.83
2018-11-12T10:05:35.782Z,69.40
2018-11-12T10:08:10.030Z,80.73
2018-11-12T10:10:43.008Z,59.95
2018-11-12T10:13:13.585Z,61.53
2018-11-12T10:15:43.519Z,61.30
2018-11-12T10:20:39.037Z,64.10
2018-11-12T10:23:08.367Z,69.83
2018-11-12T10:25:37.552Z,71.57
2018-11-12T10:28:06.741Z,80.60
2018-11-12T10:30:35.950Z,82.87
2018-11-12T10:33:05.427Z,86.80
2018-11-12T10:35:34.735Z,75.10
2018-11-12T10:38:04.104Z,66.60
2018-11-12T10:40:33.251Z,83.97
2018-11-12T10:43:02.386Z,80.70
2018-11-12T10:45:31.540Z,81.07
2018-11-12T10:48:00.728Z,81.07
2018-11-12T10:50:29.920Z,79.90
2018-11-12T10:52:59.080Z,85.43
2018-11-12T10:55:28.352Z,91.43
2018-11-12T10:57:57.477Z,77.03
2018-11-12T11:00:33.189Z,78.27
2018-11-12T11:03:09.299Z,72.30
2018-11-12T11:05:39.532Z,83.37
2018-11-12T11:08:09.243Z,75.60
2018-11-12T11:10:38.374Z,76.47
2018-11-12T11:13:08.098Z,68.63
2018-11-12T11:15:37.837Z,67.60
2018-11-12T11:18:07.391Z,74.70
2018-11-12T11:20:36.581Z,79.50
2018-11-12T11:23:05.814Z,76.27
2018-11-12T11:25:35.336Z,76.23
2018-11-12T11:28:04.476Z,76.13
2018-11-12T11:30:33.679Z,74.47
2018-11-12T11:33:02.860Z,79.77
2018-11-12T11:35:32.004Z,63.50
2018-11-12T11:38:01.156Z,78.57
2018-11-12T11:40:30.298Z,78.13
2018-11-12T11:42:59.430Z,72.73
2018-11-12T11:45:28.598Z,75.12
2018-11-12T11:47:57.771Z,73.77
2018-11-12T11:50:27.678Z,69.50
2018-11-12T11:52:56.803Z,72.25
2018-11-12T11:55:26.149Z,62.55
2018-11-12T11:57:55.321Z,58.50
2018-11-12T12:00:25.796Z,63.53
2018-11-12T12:02:56.097Z,71.50
2018-11-12T12:05:25.622Z,76.97
2018-11-12T12:07:55.529Z,69.40
2018-11-12T12:10:24.691Z,75.00
2018-11-12T12:12:54.043Z,65.27
2018-11-12T12:15:23.951Z,68.75
2018-11-12T12:17:53.153Z,67.53
2018-11-12T12:20:25.530Z,63.80
2018-11-12T12:22:55.130Z,63.67
2018-11-12T12:25:24.310Z,63.63
2018-11-12T12:27:53.459Z,61.83
2018-11-12T12:30:23.958Z,61.17
2018-11-12T12:32:54.087Z,69.13
2018-11-12T12:35:23.315Z,77.97
2018-11-12T12:37:52.599Z,81.40
2018-11-12T12:40:23.114Z,76.87
2018-11-12T12:42:52.294Z,69.80
2018-11-12T12:45:23.111Z,70.22
2018-11-12T12:47:52.754Z,68.97
2018-11-12T12:50:21.916Z,65.70
2018-11-12T12:52:51.082Z,63.67
2018-11-12T12:55:20.261Z,74.37
2018-11-12T12:57:49.589Z,67.72
2018-11-12T13:00:22.318Z,68.93
2018-11-12T13:02:51.480Z,65.17
2018-11-12T13:05:20.596Z,69.80
2018-11-12T13:07:49.723Z,79.40
2018-11-12T13:10:20.134Z,69.60
2018-11-12T13:12:49.425Z,82.30
2018-11-12T13:15:19.467Z,73.25
2018-11-12T13:17:49.271Z,73.20
2018-11-12T13:20:19.653Z,80.83
2018-11-12T13:22:49.431Z,73.30
2018-11-12T13:25:18.619Z,77.03
2018-11-12T13:27:48.300Z,90.63
2018-11-12T13:30:20.840Z,87.67
2018-11-12T13:32:50.146Z,83.37
2018-11-12T13:35:21.069Z,79.67
2018-11-12T13:37:50.239Z,88.80
2018-11-12T13:40:21.015Z,73.27
2018-11-12T13:42:52.652Z,73.77
2018-11-12T13:45:22.235Z,75.67
2018-11-12T13:47:51.390Z,83.57
2018-11-12T13:50:21.882Z,83.57
2018-11-12T13:52:51.670Z,79.60
2018-11-12T13:55:22.005Z,80.40
2018-11-12T13:57:51.147Z,82.17
2018-11-12T14:00:21.922Z,76.13
2018-11-12T14:02:51.645Z,87.50
2018-11-12T14:05:21.948Z,73.70
2018-11-12T14:07:51.228Z,81.60
2018-11-12T14:10:22.830Z,89.03
2018-11-12T14:12:53.155Z,95.47
2018-11-12T14:15:22.957Z,84.90
2018-11-12T14:17:52.769Z,83.27
2018-11-12T14:20:22.492Z,89.37
2018-11-12T14:22:51.579Z,81.00
2018-11-12T14:25:21.777Z,92.30
2018-11-12T14:27:52.091Z,95.40
2018-11-12T14:30:22.979Z,92.93
2018-11-12T14:32:52.216Z,108.43
2018-11-12T14:35:21.487Z,102.35
2018-11-12T14:37:50.697Z,89.73
2018-11-12T14:40:20.175Z,88.47
2018-11-12T14:42:49.339Z,97.93
2018-11-12T14:45:19.958Z,83.70
2018-11-12T14:47:49.208Z,92.80
2018-11-12T14:50:18.365Z,93.70
2018-11-12T14:52:47.994Z,93.00
2018-11-12T14:55:17.904Z,91.60
2018-11-12T14:57:47.111Z,97.83
2018-11-12T15:00:18.542Z,96.50
2018-11-12T15:02:47.741Z,89.93
2018-11-12T15:05:18.193Z,98.33
2018-11-12T15:07:47.313Z,95.80
2018-11-12T15:10:16.480Z,92.73
2018-11-12T15:12:46.700Z,86.63
2018-11-12T15:15:15.895Z,79.53
2018-11-12T15:17:45.284Z,87.07
2018-11-12T15:20:15.773Z,86.10
2018-11-12T15:22:46.216Z,91.10
2018-11-12T15:25:18.130Z,92.33
2018-11-12T15:27:47.351Z,92.93
2018-11-12T15:30:24.542Z,82.43
2018-11-12T15:32:55.126Z,88.97
2018-11-12T15:35:24.486Z,92.83
2018-11-12T15:37:53.774Z,78.97
2018-11-12T15:40:23.023Z,82.47
2018-11-12T15:42:52.233Z,82.20
2018-11-12T15:45:24.248Z,78.17
2018-11-12T15:47:53.492Z,80.53
2018-11-12T15:50:25.532Z,86.43
2018-11-12T15:52:54.787Z,86.40
2018-11-12T15:55:23.968Z,82.73
2018-11-12T15:57:53.495Z,87.93
2018-11-12T16:00:22.646Z,84.83
2018-11-12T16:02:51.830Z,80.93
2018-11-12T16:05:21.178Z,97.97
2018-11-12T16:07:50.357Z,87.30
2018-11-12T16:10:20.766Z,85.37
2018-11-12T16:12:49.958Z,85.93
2018-11-12T16:15:20.284Z,88.85
2018-11-12T16:17:49.507Z,93.03
2018-11-12T16:20:21.459Z,93.40
2018-11-12T16:22:51.190Z,90.53
2018-11-12T16:25:20.765Z,87.50
2018-11-12T16:27:49.920Z,78.33
2018-11-12T16:30:19.057Z,76.03
2018-11-12T16:32:48.315Z,76.40
2018-11-12T16:35:19.487Z,82.70
2018-11-12T16:37:49.843Z,75.50
2018-11-12T16:40:19.251Z,83.70
2018-11-12T16:42:49.131Z,84.90
2018-11-12T16:45:18.402Z,88.82
2018-11-12T16:47:47.735Z,75.70
2018-11-12T16:50:17.474Z,90.30
2018-11-12T16:52:46.810Z,79.37
2018-11-12T16:55:17.710Z,88.77
2018-11-12T16:57:47.339Z,84.80
2018-11-12T17:00:18.126Z,80.23
2018-11-12T17:02:47.678Z,89.27
2018-11-12T17:05:18.636Z,74.80
2018-11-12T17:07:47.804Z,74.40
2018-11-12T17:10:18.201Z,90.65
2018-11-12T17:12:48.326Z,102.10
2018-11-12T17:15:18.106Z,105.33
2018-11-12T17:17:47.487Z,114.57
2018-11-12T17:20:18.077Z,98.23
2018-11-12T17:22:47.232Z,94.90
2018-11-12T17:25:16.969Z,94.17
2018-11-12T17:27:46.633Z,98.27
2018-11-12T17:30:21.037Z,100.07
2018-11-12T17:32:50.794Z,106.67
2018-11-12T17:35:21.301Z,99.67
2018-11-12T17:37:50.486Z,97.63
2018-11-12T17:40:22.131Z,98.43
2018-11-12T17:42:52.596Z,99.13
2018-11-12T17:45:23.139Z,107.92
2018-11-12T17:47:53.603Z,103.20
2018-11-12T17:50:22.848Z,94.90
2018-11-12T17:52:52.045Z,98.17
2018-11-12T17:55:21.257Z,98.52
2018-11-12T17:57:50.565Z,87.37
2018-11-12T18:00:23.110Z,93.93
2018-11-12T18:02:52.690Z,91.73
2018-11-12T18:05:21.827Z,94.92
2018-11-12T18:07:51.136Z,100.40
2018-11-12T18:10:20.308Z,109.97
2018-11-12T18:12:49.566Z,91.77
2018-11-12T18:15:20.275Z,106.75
2018-11-12T18:17:49.657Z,96.37
2018-11-12T18:20:20.789Z,93.93
2018-11-12T18:22:50.672Z,95.50
2018-11-12T18:25:19.869Z,94.85
2018-11-12T18:27:49.033Z,94.77
2018-11-12T18:30:22.323Z,101.22
2018-11-12T18:32:52.823Z,100.00
2018-11-12T18:35:21.973Z,82.80
2018-11-12T18:37:51.239Z,109.67
2018-11-12T18:40:22.015Z,96.27
2018-11-12T18:42:51.191Z,103.23
2018-11-12T18:45:22.891Z,96.57
2018-11-12T18:47:52.091Z,101.83
2018-11-12T18:50:24.744Z,97.43
2018-11-12T18:52:53.937Z,90.00
2018-11-12T18:55:23.106Z,95.55
2018-11-12T18:57:52.785Z,106.37
2018-11-12T19:00:23.185Z,98.73
2018-11-12T19:02:53.057Z,94.17
2018-11-12T19:05:25.649Z,105.60
2018-11-12T19:07:56.198Z,91.53
2018-11-12T19:10:27.266Z,95.60
2018-11-12T19:12:56.422Z,96.50
2018-11-12T19:15:31.382Z,108.97
2018-11-12T19:18:03.789Z,111.77
2018-11-12T19:20:33.007Z,113.77
2018-11-12T19:23:02.314Z,103.30
2018-11-12T19:25:32.615Z,99.57
2018-11-12T19:28:01.958Z,88.50
2018-11-12T19:30:31.601Z,96.80
2018-11-12T19:33:00.882Z,105.67
2018-11-12T19:35:31.640Z,97.83
2018-11-12T19:38:01.522Z,102.33
2018-11-12T19:40:31.852Z,92.43
2018-11-12T19:43:01.022Z,92.10
2018-11-12T19:45:30.180Z,89.37
2018-11-12T19:47:59.334Z,91.20
2018-11-12T19:50:29.431Z,92.90
2018-11-12T19:52:59.565Z,85.13
2018-11-12T19:55:28.734Z,77.08
2018-11-12T19:57:58.126Z,79.27
2018-11-12T20:00:28.308Z,87.40
2018-11-12T20:02:59.334Z,87.20
2018-11-12T20:05:28.582Z,92.23
2018-11-12T20:07:57.818Z,91.97
2018-11-12T20:10:27.530Z,91.20
2018-11-12T20:12:56.729Z,97.27
2018-11-12T20:15:26.885Z,88.60
2018-11-12T20:17:56.490Z,99.60
2018-11-12T20:20:27.199Z,95.83
2018-11-12T20:22:57.858Z,84.07
2018-11-12T20:25:27.107Z,82.15
2018-11-12T20:27:57.175Z,89.43
2018-11-12T20:30:30.962Z,84.03
2018-11-12T20:33:00.183Z,91.50
2018-11-12T20:35:29.536Z,99.13
2018-11-12T20:37:58.765Z,93.70
2018-11-12T20:40:27.976Z,94.23
2018-11-12T20:42:57.193Z,92.87
2018-11-12T20:45:27.291Z,91.28
2018-11-12T20:47:57.356Z,94.30
2018-11-12T20:50:26.594Z,95.20
2018-11-12T20:52:55.890Z,97.70
2018-11-12T20:55:25.133Z,82.70
2018-11-12T20:57:54.307Z,87.63
2018-11-12T21:00:25.099Z,84.33
2018-11-12T21:02:54.852Z,75.40
2018-11-12T21:05:25.697Z,80.20
2018-11-12T21:07:55.122Z,93.40
2018-11-12T21:10:24.454Z,84.13
2018-11-12T21:12:53.816Z,66.57
2018-11-12T21:15:24.093Z,79.70
2018-11-12T21:17:53.327Z,75.90
2018-11-12T21:20:23.528Z,80.77
2018-11-12T21:22:52.827Z,72.73
2018-11-12T21:25:23.144Z,84.80
2018-11-12T21:27:52.393Z,82.97
2018-11-12T21:30:22.879Z,74.43
2018-11-12T21:32:52.045Z,75.53
2018-11-12T21:35:21.379Z,88.53
2018-11-12T21:37:51.461Z,75.50
2018-11-12T21:40:22.114Z,73.13
2018-11-12T21:42:51.352Z,71.80
2018-11-12T21:45:21.857Z,66.97
2018-11-12T21:47:51.000Z,57.93
2018-11-12T21:50:21.076Z,79.40
2018-11-12T21:52:50.235Z,70.53
2018-11-12T21:55:19.478Z,61.57
2018-11-12T21:57:48.678Z,54.20
2018-11-12T22:00:26.312Z,52.87
2018-11-12T22:03:00.699Z,59.20
2018-11-12T22:05:31.058Z,53.77
2018-11-12T22:08:00.516Z,52.37
2018-11-12T22:10:30.269Z,62.00
2018-11-12T22:12:59.451Z,59.03
2018-11-12T22:15:28.615Z,49.80
2018-11-12T22:17:57.826Z,56.57
2018-11-12T22:20:28.802Z,45.30
2018-11-12T22:22:58.044Z,55.77
2018-11-12T22:25:27.273Z,48.43
2018-11-12T22:27:56.630Z,58.63
2018-11-12T22:30:27.101Z,49.70
2018-11-12T22:32:56.879Z,53.90
2018-11-12T22:35:26.052Z,61.18
2018-11-12T22:37:55.223Z,57.73
2018-11-12T22:40:24.396Z,63.43
2018-11-12T22:42:54.011Z,73.70
2018-11-12T22:45:24.215Z,63.10
2018-11-12T22:47:53.628Z,59.67
2018-11-12T22:50:22.879Z,67.23
2018-11-12T22:52:52.042Z,57.50
2018-11-12T22:55:21.394Z,60.55
2018-11-12T22:57:50.547Z,54.63
2018-11-12T23:00:26.067Z,56.40
2018-11-12T23:02:55.682Z,60.20
2018-11-12T23:05:25.018Z,54.77
2018-11-12T23:07:54.866Z,60.00
2018-11-12T23:10:24.146Z,63.30
2018-11-12T23:12:53.382Z,62.60
2018-11-12T23:15:22.527Z,59.87
2018-11-12T23:17:51.684Z,58.17
2018-11-12T23:20:22.162Z,67.70
2018-11-12T23:22:51.944Z,65.57
2018-11-12T23:25:21.161Z,62.50
2018-11-12T23:27:50.934Z,71.27
2018-11-12T23:30:21.468Z,63.83
2018-11-12T23:32:50.644Z,60.87
2018-11-12T23:35:21.091Z,62.77
2018-11-12T23:37:50.574Z,63.07
2018-11-12T23:40:19.824Z,65.77
2018-11-12T23:42:49.061Z,65.67
2018-11-12T23:45:18.316Z,61.13
2018-11-12T23:47:47.455Z,62.63
2018-11-12T23:50:19.976Z,64.77
2018-11-12T23:52:49.866Z,71.83
2018-11-12T23:55:19.499Z,65.75
2018-11-12T23:57:49.409Z,67.80
